createdAt,value
2022-07-25T00:11:54.489Z,18.74
2022-07-25T00:26:56.714Z,19.427
2022-07-25T00:41:59.689Z,20.047
2022-07-25T00:57:02.172Z,21.284
2022-07-25T01:12:04.641Z,20.532
2022-07-25T01:27:07.799Z,23.938
2022-07-25T01:42:19.536Z,23.989
2022-07-25T01:57:21.988Z,23.486
2022-07-25T02:12:27.599Z,27.25
2022-07-25T02:27:29.914Z,25.946
2022-07-25T02:42:32.341Z,27.417
2022-07-25T02:57:34.642Z,29.53
2022-07-25T03:12:37.105Z,29.828
2022-07-25T03:27:39.471Z,31.514
2022-07-25T03:42:41.996Z,33.119
2022-07-25T03:57:44.271Z,33.781
2022-07-25T04:12:46.555Z,35.943
2022-07-25T04:27:48.844Z,35.46
2022-07-25T04:42:51.108Z,36.02
2022-07-25T04:57:53.429Z,35.505
2022-07-25T05:12:55.730Z,41.645
2022-07-25T05:27:58.191Z,38.997
2022-07-25T05:43:03.282Z,42.279
2022-07-25T05:58:06.172Z,43.265
2022-07-25T06:13:08.451Z,41.957
2022-07-25T06:28:12.666Z,43.602
2022-07-25T06:43:20.539Z,44.5
2022-07-25T06:58:24.050Z,47.459
2022-07-25T07:13:28.497Z,47.922
2022-07-25T07:28:30.878Z,51.556
2022-07-25T07:43:33.166Z,54.453
2022-07-25T07:58:35.624Z,51.159
2022-07-25T08:13:37.923Z,56.016
2022-07-25T08:28:40.240Z,54.843
2022-07-25T08:43:42.697Z,54.778
2022-07-25T08:58:44.995Z,55.168
2022-07-25T09:13:47.292Z,58.871
2022-07-25T09:28:49.786Z,60.059
2022-07-25T09:43:52.142Z,61.328
2022-07-25T09:58:54.436Z,61.615
2022-07-25T10:13:56.747Z,59.861
2022-07-25T10:28:59.045Z,61.114
2022-07-25T10:44:01.420Z,58.067
2022-07-25T10:59:03.902Z,61.312
2022-07-25T11:14:06.415Z,63.609
2022-07-25T11:29:09.344Z,62.932
2022-07-25T11:44:11.944Z,62.897
2022-07-25T11:59:14.293Z,63.822
2022-07-25T12:14:16.599Z,63.012
2022-07-25T12:29:18.877Z,61.244
2022-07-25T12:44:21.312Z,64.48
2022-07-25T12:59:23.601Z,62.312
2022-07-25T13:14:26.468Z,67.353
2022-07-25T13:29:28.871Z,65.047
2022-07-25T13:44:31.844Z,60.787
2022-07-25T13:59:34.141Z,63.149
2022-07-25T14:14:36.623Z,56.104
2022-07-25T14:29:38.941Z,55.813
2022-07-25T14:44:41.329Z,55.024
2022-07-25T14:59:43.649Z,55.804
2022-07-25T15:14:46.639Z,50.931
2022-07-25T15:29:48.961Z,47.473
2022-07-25T15:45:03.856Z,44.785
2022-07-25T16:00:17.843Z,43.56
2022-07-25T16:15:20.137Z,42.32
2022-07-25T16:30:22.547Z,42.322
2022-07-25T16:45:24.824Z,38.859
2022-07-25T17:00:27.127Z,39.441
2022-07-25T17:15:29.456Z,37.493
2022-07-25T17:30:31.854Z,35.664
2022-07-25T17:45:34.184Z,34.055
2022-07-25T18:00:36.462Z,33.879
2022-07-25T18:15:38.883Z,32.397
2022-07-25T18:30:41.264Z,30.666
2022-07-25T18:45:43.751Z,29.918
2022-07-25T19:00:47.138Z,29.083
2022-07-25T19:15:49.569Z,27.949
2022-07-25T19:30:51.962Z,27.664
2022-07-25T19:45:54.450Z,28.12
2022-07-25T20:00:56.865Z,26.201
2022-07-25T20:15:59.180Z,24.858
2022-07-25T20:31:01.617Z,24.837
2022-07-25T20:46:08.848Z,22.267
2022-07-25T21:01:11.761Z,21.644
2022-07-25T21:16:14.061Z,22.945
2022-07-25T21:31:16.412Z,21.984
2022-07-25T21:46:18.826Z,20.501
2022-07-25T22:01:21.659Z,20.453
2022-07-25T22:16:24.120Z,19.235
2022-07-25T22:31:26.491Z,18.791
2022-07-25T22:46:29.032Z,17.558
2022-07-25T23:01:31.483Z,18.366
2022-07-25T23:16:33.864Z,17.818
2022-07-25T23:31:36.269Z,17.989
2022-07-25T23:46:38.691Z,19.113
